Time,TemperatureF,DewpointF,PressureIn,WindDirection,WindDirectionDegrees,WindSpeedMPH,WindSpeedGustMPH,Humidity,HourlyPrecipIn,Conditions,Clouds,dailyrainin,SoftwareType,DateUTC
2013-08-22 00:01:00,72.4,48.7,29.79,NE,39,4.0,10.0,43,0.00,,---,0.00,VWS V14.01,2013-08-22 07:01:00,
2013-08-22 00:06:00,72.2,48.5,29.79,NNE,15,6.0,8.0,43,0.00,,---,0.00,VWS V14.01,2013-08-22 07:06:00,
2013-08-22 00:11:00,71.9,48.8,29.80,NNE,16,4.0,9.0,44,0.00,,---,0.00,VWS V14.01,2013-08-22 07:11:00,
2013-08-22 00:16:00,71.7,48.7,29.80,NNE,22,8.0,8.0,44,0.00,,---,0.00,VWS V14.01,2013-08-22 07:16:00,
2013-08-22 00:21:00,71.6,48.6,29.80,NNE,19,3.0,6.0,44,0.00,,---,0.00,VWS V14.01,2013-08-22 07:21:00,
2013-08-22 00:26:00,71.4,49.0,29.80,NNE,32,4.0,8.0,45,0.00,,---,0.00,VWS V14.01,2013-08-22 07:26:00,
2013-08-22 00:31:00,71.2,48.8,29.80,NNE,26,5.0,7.0,45,0.00,,---,0.00,VWS V14.01,2013-08-22 07:31:00,
2013-08-22 00:36:00,70.9,48.5,29.80,NNW,340,3.0,6.0,45,0.00,,---,0.00,VWS V14.01,2013-08-22 07:36:00,
2013-08-22 00:41:00,70.5,48.8,29.78,North,10,4.0,6.0,46,0.00,,---,0.00,VWS V14.01,2013-08-22 07:41:00,
2013-08-22 00:46:00,70.3,48.6,29.78,North,355,6.0,7.0,46,0.00,,---,0.00,VWS V14.01,2013-08-22 07:46:00,
2013-08-22 00:51:00,70.5,48.8,29.79,NNE,26,9.0,9.0,46,0.00,,---,0.00,VWS V14.01,2013-08-22 07:51:00,
2013-08-22 00:56:00,70.3,49.1,29.79,NNE,22,7.0,10.0,47,0.00,,---,0.00,VWS V14.01,2013-08-22 07:56:00,
2013-08-22 01:01:00,70.2,49.0,29.79,NE,42,4.0,8.0,47,0.00,,---,0.00,VWS V14.01,2013-08-22 08:01:00,
2013-08-22 01:06:00,70.1,49.0,29.78,NNE,19,4.0,6.0,47,0.00,,---,0.00,VWS V14.01,2013-08-22 08:06:00,
2013-08-22 01:11:00,70.0,48.9,29.79,NNE,33,3.0,6.0,47,0.00,,---,0.00,VWS V14.01,2013-08-22 08:11:00,
2013-08-22 01:16:00,69.9,48.8,29.79,NE,40,0.0,3.0,47,0.00,,---,0.00,VWS V14.01,2013-08-22 08:16:00,
2013-08-22 01:21:00,69.8,48.7,29.80,NE,40,2.0,2.0,47,0.00,,---,0.00,VWS V14.01,2013-08-22 08:21:00,
2013-08-22 01:26:00,69.7,48.6,29.80,NE,47,0.0,1.0,47,0.00,,---,0.00,VWS V14.01,2013-08-22 08:26:00,
2013-08-22 01:31:00,69.6,48.5,29.80,NE,47,0.0,1.0,47,0.00,,---,0.00,VWS V14.01,2013-08-22 08:31:00,
2013-08-22 01:36:00,69.2,48.7,29.79,NE,40,3.0,3.0,48,0.00,,---,0.00,VWS V14.01,2013-08-22 08:36:00,
2013-08-22 01:41:00,68.8,48.9,29.78,NW,318,4.0,5.0,49,0.00,,---,0.00,VWS V14.01,2013-08-22 08:41:00,
2013-08-22 01:46:00,68.4,48.5,29.77,NW,311,4.0,6.0,49,0.00,,---,0.00,VWS V14.01,2013-08-22 08:46:00,
2013-08-22 01:51:00,68.4,48.5,29.77,WNW,297,2.0,3.0,49,0.00,,---,0.00,VWS V14.01,2013-08-22 08:51:00,
2013-08-22 01:56:00,68.4,48.5,29.77,West,263,5.0,6.0,49,0.00,,---,0.00,VWS V14.01,2013-08-22 08:56:00,
2013-08-22 02:01:00,68.2,48.3,29.78,West,273,4.0,5.0,49,0.00,,---,0.00,VWS V14.01,2013-08-22 09:01:00,
2013-08-22 02:06:00,67.7,48.4,29.80,SSW,196,6.0,7.0,50,0.00,,---,0.00,VWS V14.01,2013-08-22 09:06:00,
2013-08-22 02:11:00,67.4,49.2,29.80,SSW,202,4.0,6.0,52,0.00,,---,0.00,VWS V14.01,2013-08-22 09:11:00,
2013-08-22 02:16:00,67.1,49.9,29.78,SSW,200,0.0,0.0,54,0.00,,---,0.00,VWS V14.01,2013-08-22 09:16:00,
2013-08-22 02:21:00,66.5,50.8,29.74,WNW,290,10.0,11.0,57,0.00,,---,0.00,VWS V14.01,2013-08-22 09:21:00,
2013-08-22 02:26:00,65.8,50.6,29.77,SSE,158,3.0,4.0,58,0.00,,---,0.00,VWS V14.01,2013-08-22 09:26:00,
2013-08-22 02:31:00,65.3,51.1,29.79,South,178,3.0,5.0,60,0.00,,---,0.00,VWS V14.01,2013-08-22 09:31:00,
2013-08-22 02:36:00,65.4,51.2,29.80,South,180,0.0,3.0,60,0.00,,---,0.00,VWS V14.01,2013-08-22 09:36:00,
2013-08-22 02:41:00,65.5,51.3,29.79,SW,227,2.0,3.0,60,0.00,,---,0.00,VWS V14.01,2013-08-22 09:41:00,
2013-08-22 02:46:00,66.1,51.4,29.76,North,5,7.0,9.0,59,0.00,,---,0.00,VWS V14.01,2013-08-22 09:46:00,
2013-08-22 02:51:00,67.0,51.3,29.77,NNE,23,0.0,3.0,57,0.00,,---,0.00,VWS V14.01,2013-08-22 09:51:00,
2013-08-22 02:56:00,66.9,51.2,29.78,WSW,250,5.0,6.0,57,0.00,,---,0.00,VWS V14.01,2013-08-22 09:56:00,
2013-08-22 03:01:00,66.5,50.8,29.78,West,261,0.0,5.0,57,0.00,,---,0.00,VWS V14.01,2013-08-22 10:01:00,
2013-08-22 03:06:00,66.4,50.7,29.79,West,261,1.0,1.0,57,0.00,,---,0.00,VWS V14.01,2013-08-22 10:06:00,
2013-08-22 03:11:00,66.2,50.5,29.80,West,261,0.0,1.0,57,0.00,,---,0.00,VWS V14.01,2013-08-22 10:11:00,
2013-08-22 03:16:00,65.8,50.6,29.79,West,261,0.0,1.0,58,0.00,,---,0.00,VWS V14.01,2013-08-22 10:16:00,
2013-08-22 03:21:00,65.7,51.0,29.78,West,261,0.0,0.0,59,0.00,,---,0.00,VWS V14.01,2013-08-22 10:21:00,
2013-08-22 03:26:00,65.5,51.3,29.77,NNE,26,4.0,6.0,60,0.00,,---,0.00,VWS V14.01,2013-08-22 10:26:00,
2013-08-22 03:31:00,65.2,51.0,29.76,NNE,17,2.0,5.0,60,0.00,,---,0.00,VWS V14.01,2013-08-22 10:31:00,
2013-08-22 03:36:00,65.3,50.6,29.77,West,267,2.0,4.0,59,0.00,,---,0.00,VWS V14.01,2013-08-22 10:36:00,
2013-08-22 03:41:00,65.2,51.0,29.78,WSW,251,2.0,3.0,60,0.00,,---,0.00,VWS V14.01,2013-08-22 10:41:00,
2013-08-22 03:46:00,65.1,50.9,29.78,WSW,252,1.0,3.0,60,0.00,,---,0.00,VWS V14.01,2013-08-22 10:46:00,
2013-08-22 05:27:00,61.1,50.5,29.77,West,272,0.0,1.0,68,0.00,,---,0.00,VWS V14.01,2013-08-22 12:27:00,
2013-08-22 05:32:00,61.0,50.4,29.77,West,272,0.0,1.0,68,0.00,,---,0.00,VWS V14.01,2013-08-22 12:32:00,
2013-08-22 05:37:00,60.9,50.3,29.77,West,272,0.0,2.0,68,0.00,,---,0.00,VWS V14.01,2013-08-22 12:37:00,
2013-08-22 05:42:00,60.9,50.3,29.77,West,269,3.0,3.0,68,0.00,,---,0.00,VWS V14.01,2013-08-22 12:42:00,
2013-08-22 05:47:00,60.8,50.2,29.77,West,269,0.0,2.0,68,0.00,,---,0.00,VWS V14.01,2013-08-22 12:47:00,
2013-08-22 05:52:00,60.8,50.2,29.77,West,269,1.0,3.0,68,0.00,,---,0.00,VWS V14.01,2013-08-22 12:52:00,
2013-08-22 05:57:00,60.7,50.1,29.77,West,269,0.0,2.0,68,0.00,,---,0.00,VWS V14.01,2013-08-22 12:57:00,
2013-08-22 06:00:00,60.6,50.0,29.77,West,269,0.0,0.0,68,0.00,,---,0.00,VWS V14.01,2013-08-22 13:00:00,
2013-08-22 06:05:00,60.6,50.0,29.77,West,269,0.0,1.0,68,0.00,,---,0.00,VWS V14.01,2013-08-22 13:05:00,
2013-08-22 06:10:00,60.6,50.0,29.77,West,269,0.0,0.0,68,0.00,,---,0.00,VWS V14.01,2013-08-22 13:10:00,
2013-08-22 06:15:00,60.5,49.9,29.77,West,269,0.0,0.0,68,0.00,,---,0.00,VWS V14.01,2013-08-22 13:15:00,
2013-08-22 06:20:00,60.3,50.1,29.77,West,269,0.0,0.0,69,0.00,,---,0.00,VWS V14.01,2013-08-22 13:20:00,
2013-08-22 06:25:00,60.2,49.6,29.77,West,269,0.0,0.0,68,0.00,,---,0.00,VWS V14.01,2013-08-22 13:25:00,
2013-08-22 06:30:00,60.0,49.4,29.77,West,269,0.0,0.0,68,0.00,,---,0.00,VWS V14.01,2013-08-22 13:30:00,
2013-08-22 06:35:00,59.8,50.0,29.77,West,269,0.0,0.0,70,0.00,,---,0.00,VWS V14.01,2013-08-22 13:35:00,
2013-08-22 06:40:00,59.7,49.9,29.77,West,269,0.0,0.0,70,0.00,,---,0.00,VWS V14.01,2013-08-22 13:40:00,
2013-08-22 06:45:00,59.6,50.2,29.77,West,269,0.0,0.0,71,0.00,,---,0.00,VWS V14.01,2013-08-22 13:45:00,
2013-08-22 06:50:00,59.6,50.2,29.77,West,269,0.0,0.0,71,0.00,,---,0.00,VWS V14.01,2013-08-22 13:50:00,
2013-08-22 06:55:00,59.8,50.4,29.77,West,269,0.0,0.0,71,0.00,,---,0.00,VWS V14.01,2013-08-22 13:55:00,
2013-08-22 07:00:00,60.0,50.6,29.77,West,269,0.0,0.0,71,0.00,,---,0.00,VWS V14.01,2013-08-22 14:00:00,
2013-08-22 07:05:00,60.2,50.4,29.78,West,269,1.0,1.0,70,0.00,,---,0.00,VWS V14.01,2013-08-22 14:05:00,
2013-08-22 07:10:00,60.5,50.7,29.78,West,269,0.0,3.0,70,0.00,,---,0.00,VWS V14.01,2013-08-22 14:10:00,
2013-08-22 07:15:00,60.7,50.5,29.78,West,269,1.0,4.0,69,0.00,,---,0.00,VWS V14.01,2013-08-22 14:15:00,
2013-08-22 07:20:00,61.0,50.4,29.78,West,269,0.0,3.0,68,0.00,,---,0.00,VWS V14.01,2013-08-22 14:20:00,
2013-08-22 07:25:00,61.2,50.2,29.78,West,269,0.0,4.0,67,0.00,,---,0.00,VWS V14.01,2013-08-22 14:25:00,
2013-08-22 07:30:00,61.5,50.0,29.78,West,269,0.0,3.0,66,0.00,,---,0.00,VWS V14.01,2013-08-22 14:30:00,
2013-08-22 07:35:00,61.7,49.8,29.78,West,269,1.0,3.0,65,0.00,,---,0.00,VWS V14.01,2013-08-22 14:35:00,
2013-08-22 07:40:00,61.9,50.0,29.78,West,269,0.0,3.0,65,0.00,,---,0.00,VWS V14.01,2013-08-22 14:40:00,
2013-08-22 07:45:00,62.1,49.8,29.78,West,269,0.0,3.0,64,0.00,,---,0.00,VWS V14.01,2013-08-22 14:45:00,
2013-08-22 07:50:00,62.4,50.1,29.79,West,269,1.0,4.0,64,0.00,,---,0.00,VWS V14.01,2013-08-22 14:50:00,
2013-08-22 07:55:00,62.7,49.9,29.79,West,269,0.0,3.0,63,0.00,,---,0.00,VWS V14.01,2013-08-22 14:55:00,
2013-08-22 08:00:00,63.0,50.2,29.79,West,273,1.0,5.0,63,0.00,,---,0.00,VWS V14.01,2013-08-22 15:00:00,
2013-08-22 08:05:00,63.4,50.2,29.79,West,265,2.0,6.0,62,0.00,,---,0.00,VWS V14.01,2013-08-22 15:05:00,
2013-08-22 08:10:00,63.8,50.5,29.78,West,268,0.0,4.0,62,0.00,,---,0.00,VWS V14.01,2013-08-22 15:10:00,
2013-08-22 08:15:00,64.4,51.1,29.78,West,268,3.0,4.0,62,0.00,,---,0.00,VWS V14.01,2013-08-22 15:15:00,
2013-08-22 08:20:00,65.4,51.6,29.78,West,268,3.0,5.0,61,0.00,,---,0.00,VWS V14.01,2013-08-22 15:20:00,
2013-08-22 08:25:00,66.5,51.8,29.78,West,271,4.0,5.0,59,0.00,,---,0.00,VWS V14.01,2013-08-22 15:25:00,
2013-08-22 08:30:00,67.7,52.4,29.78,WNW,283,0.0,4.0,58,0.00,,---,0.00,VWS V14.01,2013-08-22 15:30:00,
2013-08-22 08:35:00,69.1,51.8,29.78,West,267,2.0,6.0,54,0.00,,---,0.00,VWS V14.01,2013-08-22 15:35:00,
2013-08-22 08:40:00,70.0,51.6,29.78,WSW,252,6.0,6.0,52,0.00,,---,0.00,VWS V14.01,2013-08-22 15:40:00,
2013-08-22 08:45:00,70.9,51.9,29.78,WSW,255,3.0,6.0,51,0.00,,---,0.00,VWS V14.01,2013-08-22 15:45:00,
2013-08-22 08:50:00,71.9,51.2,29.78,SW,227,3.0,8.0,48,0.00,,---,0.00,VWS V14.01,2013-08-22 15:50:00,
2013-08-22 08:55:00,72.4,51.0,29.78,WSW,254,1.0,6.0,47,0.00,,---,0.00,VWS V14.01,2013-08-22 15:55:00,
2013-08-22 09:00:00,72.9,50.9,29.78,West,266,1.0,6.0,46,0.00,,---,0.00,VWS V14.01,2013-08-22 16:00:00,
2013-08-22 09:05:00,73.4,50.2,29.78,WSW,242,4.0,8.0,44,0.00,,---,0.00,VWS V14.01,2013-08-22 16:05:00,
2013-08-22 09:10:00,73.7,49.8,29.78,SSW,212,2.0,8.0,43,0.00,,---,0.00,VWS V14.01,2013-08-22 16:10:00,
2013-08-22 09:15:00,74.3,49.8,29.77,SW,230,3.0,7.0,42,0.00,,---,0.00,VWS V14.01,2013-08-22 16:15:00,
2013-08-22 09:20:00,75.1,50.5,29.77,WSW,253,7.0,7.0,42,0.00,,---,0.00,VWS V14.01,2013-08-22 16:20:00,
2013-08-22 09:25:00,75.6,50.3,29.77,WNW,284,1.0,6.0,41,0.00,,---,0.00,VWS V14.01,2013-08-22 16:25:00,
2013-08-22 09:30:00,76.3,50.2,29.77,SW,217,3.0,7.0,40,0.00,,---,0.00,VWS V14.01,2013-08-22 16:30:00,
2013-08-22 09:35:00,76.7,49.9,29.77,WNW,290,4.0,5.0,39,0.00,,---,0.00,VWS V14.01,2013-08-22 16:35:00,
2013-08-22 09:40:00,77.0,50.2,29.77,WSW,256,6.0,6.0,39,0.00,,---,0.00,VWS V14.01,2013-08-22 16:40:00,
2013-08-22 09:45:00,77.2,50.3,29.77,South,180,4.0,5.0,39,0.00,,---,0.00,VWS V14.01,2013-08-22 16:45:00,
2013-08-22 09:50:00,76.9,50.1,29.77,SSE,165,3.0,5.0,39,0.00,,---,0.00,VWS V14.01,2013-08-22 16:50:00,
2013-08-22 09:55:00,76.8,50.0,29.76,South,187,0.0,4.0,39,0.00,,---,0.00,VWS V14.01,2013-08-22 16:55:00,
2013-08-22 10:00:00,77.7,50.8,29.76,South,176,4.0,4.0,39,0.00,,---,0.00,VWS V14.01,2013-08-22 17:00:00,
2013-08-22 10:05:00,77.9,51.0,29.76,SSE,150,3.0,6.0,39,0.00,,---,0.00,VWS V14.01,2013-08-22 17:05:00,
2013-08-22 10:10:00,77.6,50.0,29.76,SSE,160,3.0,7.0,38,0.00,,---,0.00,VWS V14.01,2013-08-22 17:10:00,
2013-08-22 10:15:00,78.2,51.2,29.76,SSE,163,0.0,6.0,39,0.00,,---,0.00,VWS V14.01,2013-08-22 17:15:00,
2013-08-22 10:20:00,78.4,50.7,29.75,South,175,1.0,9.0,38,0.00,,---,0.00,VWS V14.01,2013-08-22 17:20:00,
2013-08-22 10:25:00,78.8,50.4,29.75,SE,137,7.0,9.0,37,0.00,,---,0.00,VWS V14.01,2013-08-22 17:25:00,
2013-08-22 10:30:00,79.0,50.5,29.75,South,182,3.0,8.0,37,0.00,,---,0.00,VWS V14.01,2013-08-22 17:30:00,
2013-08-22 10:35:00,79.0,51.2,29.75,SE,146,5.0,9.0,38,0.00,,---,0.00,VWS V14.01,2013-08-22 17:35:00,
2013-08-22 10:40:00,79.3,51.5,29.75,South,182,2.0,9.0,38,0.00,,---,0.00,VWS V14.01,2013-08-22 17:40:00,
2013-08-22 10:45:00,79.2,51.4,29.75,ESE,118,7.0,8.0,38,0.00,,---,0.00,VWS V14.01,2013-08-22 17:45:00,
2013-08-22 10:50:00,79.5,51.0,29.75,ESE,113,0.0,7.0,37,0.00,,---,0.00,VWS V14.01,2013-08-22 17:50:00,
2013-08-22 10:55:00,80.2,50.8,29.75,SE,126,4.0,4.0,36,0.00,,---,0.00,VWS V14.01,2013-08-22 17:55:00,
2013-08-22 11:00:00,80.2,51.6,29.75,SSW,193,3.0,6.0,37,0.00,,---,0.00,VWS V14.01,2013-08-22 18:00:00,
2013-08-22 11:05:00,80.4,51.0,29.75,SSE,150,1.0,7.0,36,0.00,,---,0.00,VWS V14.01,2013-08-22 18:05:00,
2013-08-22 11:10:00,81.3,51.8,29.75,SSW,196,5.0,6.0,36,0.00,,---,0.00,VWS V14.01,2013-08-22 18:10:00,
2013-08-22 11:15:00,81.2,51.7,29.75,SSE,168,0.0,5.0,36,0.00,,---,0.00,VWS V14.01,2013-08-22 18:15:00,
2013-08-22 11:20:00,81.9,51.6,29.75,South,182,1.0,1.0,35,0.00,,---,0.00,VWS V14.01,2013-08-22 18:20:00,
2013-08-22 11:25:00,82.9,51.7,29.75,ESE,115,0.0,7.0,34,0.00,,---,0.00,VWS V14.01,2013-08-22 18:25:00,
2013-08-22 11:30:00,83.3,52.0,29.75,East,79,0.0,4.0,34,0.00,,---,0.00,VWS V14.01,2013-08-22 18:30:00,
2013-08-22 11:35:00,83.2,51.9,29.75,South,188,8.0,8.0,34,0.00,,---,0.00,VWS V14.01,2013-08-22 18:35:00,
2013-08-22 11:40:00,82.8,50.8,29.74,SSW,192,1.0,7.0,33,0.00,,---,0.00,VWS V14.01,2013-08-22 18:40:00,
2013-08-22 11:45:00,83.5,51.4,29.74,SW,230,3.0,4.0,33,0.00,,---,0.00,VWS V14.01,2013-08-22 18:45:00,
2013-08-22 11:50:00,83.7,50.7,29.74,SSW,192,2.0,6.0,32,0.00,,---,0.00,VWS V14.01,2013-08-22 18:50:00,
2013-08-22 11:55:00,84.7,50.8,29.74,ESE,108,2.0,6.0,31,0.00,,---,0.00,VWS V14.01,2013-08-22 18:55:00,
2013-08-22 12:00:00,84.4,50.5,29.73,SSE,163,3.0,8.0,31,0.00,,---,0.00,VWS V14.01,2013-08-22 19:00:00,
2013-08-22 12:05:00,84.6,49.8,29.73,SSE,158,2.0,6.0,30,0.00,,---,0.00,VWS V14.01,2013-08-22 19:05:00,
2013-08-22 12:10:00,85.0,50.1,29.73,WNW,303,2.0,4.0,30,0.00,,---,0.00,VWS V14.01,2013-08-22 19:10:00,
2013-08-22 12:15:00,85.5,50.6,29.73,ENE,65,1.0,3.0,30,0.00,,---,0.00,VWS V14.01,2013-08-22 19:15:00,
2013-08-22 12:20:00,86.2,50.2,29.72,SSE,155,0.0,5.0,29,0.00,,---,0.00,VWS V14.01,2013-08-22 19:20:00,
2013-08-22 12:25:00,86.9,49.9,29.72,South,171,2.0,7.0,28,0.00,,---,0.00,VWS V14.01,2013-08-22 19:25:00,
2013-08-22 12:30:00,86.8,50.8,29.72,South,180,5.0,8.0,29,0.00,,---,0.00,VWS V14.01,2013-08-22 19:30:00,
2013-08-22 12:35:00,86.4,50.4,29.72,South,185,3.0,5.0,29,0.00,,---,0.00,VWS V14.01,2013-08-22 19:35:00,
2013-08-22 12:40:00,86.0,49.1,29.72,SSW,200,0.0,10.0,28,0.00,,---,0.00,VWS V14.01,2013-08-22 19:40:00,
2013-08-22 12:45:00,86.6,49.7,29.72,East,93,5.0,5.0,28,0.00,,---,0.00,VWS V14.01,2013-08-22 19:45:00,
2013-08-22 12:50:00,87.2,50.2,29.72,East,88,0.0,8.0,28,0.00,,---,0.00,VWS V14.01,2013-08-22 19:50:00,
2013-08-22 12:55:00,87.7,50.6,29.71,NE,49,0.0,3.0,28,0.00,,---,0.00,VWS V14.01,2013-08-22 19:55:00,
2013-08-22 13:00:00,88.2,50.0,29.71,SSE,162,1.0,4.0,27,0.00,,---,0.00,VWS V14.01,2013-08-22 20:00:00,
2013-08-22 13:05:00,87.6,50.5,29.71,ENE,74,0.0,8.0,28,0.00,,---,0.00,VWS V14.01,2013-08-22 20:05:00,
2013-08-22 13:10:00,88.3,49.1,29.71,WNW,284,4.0,4.0,26,0.00,,---,0.00,VWS V14.01,2013-08-22 20:10:00,
2013-08-22 13:15:00,88.4,48.1,29.70,SSW,199,0.0,5.0,25,0.00,,---,0.00,VWS V14.01,2013-08-22 20:15:00,
2013-08-22 13:20:00,89.0,47.6,29.70,SSE,148,1.0,5.0,24,0.00,,---,0.00,VWS V14.01,2013-08-22 20:20:00,
2013-08-22 13:25:00,90.3,48.7,29.70,East,99,2.0,5.0,24,0.00,,---,0.00,VWS V14.01,2013-08-22 20:25:00,
2013-08-22 13:30:00,90.6,45.4,29.70,SSE,161,0.0,5.0,21,0.00,,---,0.00,VWS V14.01,2013-08-22 20:30:00,
2013-08-22 13:35:00,90.6,47.8,29.69,East,95,3.0,3.0,23,0.00,,---,0.00,VWS V14.01,2013-08-22 20:35:00,
2013-08-22 13:40:00,90.9,46.8,29.69,South,185,2.0,3.0,22,0.00,,---,0.00,VWS V14.01,2013-08-22 20:40:00,
2013-08-22 13:45:00,90.5,45.3,29.69,SSE,166,4.0,7.0,21,0.00,,---,0.00,VWS V14.01,2013-08-22 20:45:00,
2013-08-22 13:50:00,90.1,46.2,29.69,WSW,246,6.0,10.0,22,0.00,,---,0.00,VWS V14.01,2013-08-22 20:50:00,
2013-08-22 13:55:00,90.5,47.7,29.68,NW,309,0.0,4.0,23,0.00,,---,0.00,VWS V14.01,2013-08-22 20:55:00,
2013-08-22 14:00:00,90.6,45.4,29.68,SSW,213,3.0,9.0,21,0.00,,---,0.00,VWS V14.01,2013-08-22 21:00:00,
2013-08-22 14:05:00,89.7,45.8,29.68,SSW,200,1.0,6.0,22,0.00,,---,0.00,VWS V14.01,2013-08-22 21:05:00,
2013-08-22 14:10:00,90.4,45.2,29.68,WSW,244,0.0,4.0,21,0.00,,---,0.00,VWS V14.01,2013-08-22 21:10:00,
2013-08-22 14:15:00,90.9,45.6,29.68,WSW,252,4.0,6.0,21,0.00,,---,0.00,VWS V14.01,2013-08-22 21:15:00,
2013-08-22 14:20:00,89.7,44.6,29.68,NW,316,8.0,8.0,21,0.00,,---,0.00,VWS V14.01,2013-08-22 21:20:00,
2013-08-22 14:25:00,88.5,43.6,29.68,West,279,1.0,9.0,21,0.00,,---,0.00,VWS V14.01,2013-08-22 21:25:00,
2013-08-22 14:30:00,88.4,44.8,29.67,NW,313,2.0,5.0,22,0.00,,---,0.00,VWS V14.01,2013-08-22 21:30:00,
2013-08-22 14:35:00,88.2,43.4,29.67,NW,316,2.0,9.0,21,0.00,,---,0.00,VWS V14.01,2013-08-22 21:35:00,
2013-08-22 14:40:00,88.4,44.8,29.67,West,267,0.0,1.0,22,0.00,,---,0.00,VWS V14.01,2013-08-22 21:40:00,
2013-08-22 14:45:00,89.8,44.7,29.66,West,261,1.0,9.0,21,0.00,,---,0.00,VWS V14.01,2013-08-22 21:45:00,
2013-08-22 14:49:00,90.4,43.9,29.66,NNW,334,6.0,11.0,20,0.00,,---,0.00,VWS V14.01,2013-08-22 21:49:00,
2013-08-22 14:54:00,90.7,44.2,29.66,NW,319,6.0,9.0,20,0.00,,---,0.00,VWS V14.01,2013-08-22 21:54:00,
2013-08-22 14:59:00,90.7,44.2,29.66,WNW,282,0.0,4.0,20,0.00,,---,0.00,VWS V14.01,2013-08-22 21:59:00,
2013-08-22 15:04:00,91.3,43.3,29.65,WNW,298,6.0,9.0,19,0.00,,---,0.00,VWS V14.01,2013-08-22 22:04:00,
2013-08-22 15:09:00,90.7,42.8,29.65,West,262,5.0,8.0,19,0.00,,---,0.00,VWS V14.01,2013-08-22 22:09:00,
2013-08-22 15:14:00,90.1,42.3,29.65,WSW,248,5.0,13.0,19,0.00,,---,0.00,VWS V14.01,2013-08-22 22:14:00,
2013-08-22 15:19:00,89.8,42.1,29.65,NW,306,6.0,9.0,19,0.00,,---,0.00,VWS V14.01,2013-08-22 22:19:00,
2013-08-22 15:24:00,89.8,42.1,29.65,WNW,286,6.0,11.0,19,0.00,,---,0.00,VWS V14.01,2013-08-22 22:24:00,
2013-08-22 15:29:00,88.8,41.3,29.65,WNW,294,7.0,9.0,19,0.00,,---,0.00,VWS V14.01,2013-08-22 22:29:00,
2013-08-22 15:34:00,88.0,40.6,29.64,WNW,294,8.0,8.0,19,0.00,,---,0.00,VWS V14.01,2013-08-22 22:34:00,
2013-08-22 15:39:00,87.7,41.7,29.64,WNW,286,4.0,8.0,20,0.00,,---,0.00,VWS V14.01,2013-08-22 22:39:00,
2013-08-22 15:44:00,87.9,40.5,29.64,West,280,8.0,12.0,19,0.00,,---,0.00,VWS V14.01,2013-08-22 22:44:00,
2013-08-22 15:49:00,88.0,41.9,29.64,NW,312,2.0,10.0,20,0.00,,---,0.00,VWS V14.01,2013-08-22 22:49:00,
2013-08-22 15:54:00,88.0,40.6,29.64,WNW,296,5.0,12.0,19,0.00,,---,0.00,VWS V14.01,2013-08-22 22:54:00,
2013-08-22 18:09:00,84.5,30.1,29.63,West,270,7.0,13.0,14,0.00,,---,0.00,VWS V14.01,2013-08-23 01:09:00,
2013-08-22 18:14:00,83.8,31.3,29.63,West,271,5.0,11.0,15,0.00,,---,0.00,VWS V14.01,2013-08-23 01:14:00,
2013-08-22 18:19:00,83.6,32.7,29.63,WNW,296,5.0,9.0,16,0.00,,---,0.00,VWS V14.01,2013-08-23 01:19:00,
2013-08-22 18:24:00,83.4,32.5,29.63,West,270,3.0,11.0,16,0.00,,---,0.00,VWS V14.01,2013-08-23 01:24:00,
2013-08-22 18:29:00,83.1,32.3,29.63,WNW,288,5.0,13.0,16,0.00,,---,0.00,VWS V14.01,2013-08-23 01:29:00,
2013-08-22 18:34:00,82.8,32.1,29.63,WSW,253,4.0,12.0,16,0.00,,---,0.00,VWS V14.01,2013-08-23 01:34:00,
2013-08-22 18:39:00,82.5,33.3,29.62,WSW,255,6.0,11.0,17,0.00,,---,0.00,VWS V14.01,2013-08-23 01:39:00,
2013-08-22 18:44:00,82.2,33.1,29.63,West,278,5.0,11.0,17,0.00,,---,0.00,VWS V14.01,2013-08-23 01:44:00,
2013-08-22 18:49:00,82.0,32.9,29.63,West,271,3.0,8.0,17,0.00,,---,0.00,VWS V14.01,2013-08-23 01:49:00,
2013-08-22 18:54:00,81.7,34.1,29.63,WNW,284,2.0,8.0,18,0.00,,---,0.00,VWS V14.01,2013-08-23 01:54:00,
2013-08-22 18:59:00,81.3,35.1,29.63,West,273,3.0,7.0,19,0.00,,---,0.00,VWS V14.01,2013-08-23 01:59:00,
2013-08-22 19:04:00,80.9,34.8,29.63,West,269,1.0,7.0,19,0.00,,---,0.00,VWS V14.01,2013-08-23 02:04:00,
2013-08-22 19:09:00,80.5,35.8,29.64,WNW,293,5.0,8.0,20,0.00,,---,0.00,VWS V14.01,2013-08-23 02:09:00,
2013-08-22 19:14:00,80.0,36.6,29.63,West,275,2.0,8.0,21,0.00,,---,0.00,VWS V14.01,2013-08-23 02:14:00,
2013-08-22 19:19:00,79.6,36.3,29.64,West,273,4.0,6.0,21,0.00,,---,0.00,VWS V14.01,2013-08-23 02:19:00,
2013-08-22 19:24:00,79.2,37.1,29.64,West,273,1.0,7.0,22,0.00,,---,0.00,VWS V14.01,2013-08-23 02:24:00,
2013-08-22 19:29:00,78.8,36.8,29.64,West,263,4.0,9.0,22,0.00,,---,0.00,VWS V14.01,2013-08-23 02:29:00,
2013-08-22 19:34:00,78.5,36.5,29.64,West,265,5.0,7.0,22,0.00,,---,0.00,VWS V14.01,2013-08-23 02:34:00,
2013-08-22 19:39:00,78.3,36.4,29.65,West,270,5.0,6.0,22,0.00,,---,0.00,VWS V14.01,2013-08-23 02:39:00,
2013-08-22 19:44:00,78.0,37.2,29.64,West,265,3.0,6.0,23,0.00,,---,0.00,VWS V14.01,2013-08-23 02:44:00,
2013-08-22 19:49:00,77.9,37.2,29.65,West,273,4.0,5.0,23,0.00,,---,0.00,VWS V14.01,2013-08-23 02:49:00,
2013-08-22 19:54:00,77.8,37.1,29.65,WNW,302,2.0,8.0,23,0.00,,---,0.00,VWS V14.01,2013-08-23 02:54:00,
2013-08-22 19:59:00,78.1,37.3,29.65,WNW,290,1.0,9.0,23,0.00,,---,0.00,VWS V14.01,2013-08-23 02:59:00,
2013-08-22 20:04:00,78.4,36.5,29.65,WNW,288,4.0,9.0,22,0.00,,---,0.00,VWS V14.01,2013-08-23 03:04:00,
2013-08-22 20:09:00,78.7,36.7,29.66,WNW,298,3.0,8.0,22,0.00,,---,0.00,VWS V14.01,2013-08-23 03:09:00,
2013-08-22 20:14:00,78.7,36.7,29.66,West,277,5.0,7.0,22,0.00,,---,0.00,VWS V14.01,2013-08-23 03:14:00,
2013-08-22 20:19:00,78.6,36.6,29.66,NW,305,5.0,11.0,22,0.00,,---,0.00,VWS V14.01,2013-08-23 03:19:00,
2013-08-22 20:24:00,78.7,36.7,29.66,WNW,291,2.0,8.0,22,0.00,,---,0.00,VWS V14.01,2013-08-23 03:24:00,
2013-08-22 20:29:00,78.6,35.4,29.67,WNW,290,7.0,11.0,21,0.00,,---,0.00,VWS V14.01,2013-08-23 03:29:00,
2013-08-22 20:34:00,78.6,36.6,29.67,WNW,294,4.0,9.0,22,0.00,,---,0.00,VWS V14.01,2013-08-23 03:34:00,
2013-08-22 20:39:00,78.3,36.4,29.67,WNW,294,4.0,7.0,22,0.00,,---,0.00,VWS V14.01,2013-08-23 03:39:00,
2013-08-22 20:44:00,77.9,37.2,29.67,West,271,0.0,7.0,23,0.00,,---,0.00,VWS V14.01,2013-08-23 03:44:00,
2013-08-22 20:49:00,77.4,36.7,29.67,WNW,288,5.0,7.0,23,0.00,,---,0.00,VWS V14.01,2013-08-23 03:49:00,
2013-08-22 20:54:00,77.1,36.5,29.67,West,267,1.0,7.0,23,0.00,,---,0.00,VWS V14.01,2013-08-23 03:54:00,
2013-08-22 20:59:00,76.8,37.3,29.67,West,262,1.0,6.0,24,0.00,,---,0.00,VWS V14.01,2013-08-23 03:59:00,
2013-08-22 21:01:00,76.7,37.2,29.67,WNW,287,2.0,3.0,24,0.00,,---,0.00,VWS V14.01,2013-08-23 04:01:00,
2013-08-22 21:06:00,76.5,37.1,29.67,WNW,284,2.0,5.0,24,0.00,,---,0.00,VWS V14.01,2013-08-23 04:06:00,
2013-08-22 21:11:00,76.3,36.9,29.67,WNW,291,0.0,1.0,24,0.00,,---,0.00,VWS V14.01,2013-08-23 04:11:00,
2013-08-22 21:16:00,76.2,36.8,29.67,West,279,0.0,1.0,24,0.00,,---,0.00,VWS V14.01,2013-08-23 04:16:00,
2013-08-22 21:21:00,76.0,36.6,29.67,West,267,0.0,2.0,24,0.00,,---,0.00,VWS V14.01,2013-08-23 04:21:00,
2013-08-22 21:26:00,75.9,37.6,29.68,WNW,298,2.0,2.0,25,0.00,,---,0.00,VWS V14.01,2013-08-23 04:26:00,
2013-08-22 21:31:00,75.8,37.5,29.68,WNW,293,0.0,1.0,25,0.00,,---,0.00,VWS V14.01,2013-08-23 04:31:00,
2013-08-22 21:36:00,75.7,36.4,29.68,NW,310,0.0,1.0,24,0.00,,---,0.00,VWS V14.01,2013-08-23 04:36:00,
2013-08-22 21:41:00,75.6,37.3,29.68,WNW,284,0.0,0.0,25,0.00,,---,0.00,VWS V14.01,2013-08-23 04:41:00,
2013-08-22 21:46:00,75.4,37.2,29.69,WNW,284,0.0,0.0,25,0.00,,---,0.00,VWS V14.01,2013-08-23 04:46:00,
2013-08-22 21:51:00,75.2,37.0,29.69,WNW,284,0.0,0.0,25,0.00,,---,0.00,VWS V14.01,2013-08-23 04:51:00,
2013-08-22 21:56:00,74.9,36.7,29.69,WNW,284,0.0,0.0,25,0.00,,---,0.00,VWS V14.01,2013-08-23 04:56:00,
2013-08-22 22:01:00,74.3,38.2,29.69,North,350,3.0,3.0,27,0.00,,---,0.00,VWS V14.01,2013-08-23 05:01:00,
2013-08-22 22:06:00,73.5,37.5,29.69,North,350,0.0,0.0,27,0.00,,---,0.00,VWS V14.01,2013-08-23 05:06:00,
2013-08-22 22:11:00,73.1,37.2,29.69,North,350,0.0,0.0,27,0.00,,---,0.00,VWS V14.01,2013-08-23 05:11:00,
2013-08-22 22:16:00,72.8,37.8,29.69,North,350,0.0,0.0,28,0.00,,---,0.00,VWS V14.01,2013-08-23 05:16:00,
2013-08-22 22:21:00,72.7,37.8,29.69,North,350,0.0,0.0,28,0.00,,---,0.00,VWS V14.01,2013-08-23 05:21:00,
2013-08-22 22:26:00,72.5,37.6,29.69,North,350,0.0,0.0,28,0.00,,---,0.00,VWS V14.01,2013-08-23 05:26:00,
2013-08-22 22:31:00,72.3,37.4,29.70,North,350,0.0,0.0,28,0.00,,---,0.00,VWS V14.01,2013-08-23 05:31:00,
2013-08-22 22:36:00,71.9,38.0,29.70,North,350,0.0,0.0,29,0.00,,---,0.00,VWS V14.01,2013-08-23 05:36:00,
2013-08-22 22:41:00,71.5,38.5,29.70,NNW,330,0.0,1.0,30,0.00,,---,0.00,VWS V14.01,2013-08-23 05:41:00,
2013-08-22 22:46:00,71.1,38.1,29.70,NW,312,0.0,1.0,30,0.00,,---,0.00,VWS V14.01,2013-08-23 05:46:00,
2013-08-22 22:51:00,70.9,38.0,29.70,NW,312,0.0,1.0,30,0.00,,---,0.00,VWS V14.01,2013-08-23 05:51:00,
2013-08-22 22:56:00,70.7,37.8,29.70,NW,312,0.0,1.0,30,0.00,,---,0.00,VWS V14.01,2013-08-23 05:56:00,
2013-08-22 23:01:00,70.6,37.7,29.70,NW,312,1.0,2.0,30,0.00,,---,0.00,VWS V14.01,2013-08-23 06:01:00,
2013-08-22 23:06:00,70.4,37.5,29.70,West,276,0.0,1.0,30,0.00,,---,0.00,VWS V14.01,2013-08-23 06:06:00,
2013-08-22 23:11:00,70.3,37.4,29.71,West,276,0.0,1.0,30,0.00,,---,0.00,VWS V14.01,2013-08-23 06:11:00,
2013-08-22 23:16:00,70.2,37.3,29.71,West,277,1.0,2.0,30,0.00,,---,0.00,VWS V14.01,2013-08-23 06:16:00,
2013-08-22 23:21:00,70.2,37.3,29.71,West,277,0.0,1.0,30,0.00,,---,0.00,VWS V14.01,2013-08-23 06:21:00,
2013-08-22 23:26:00,70.1,37.3,29.71,West,277,0.0,1.0,30,0.00,,---,0.00,VWS V14.01,2013-08-23 06:26:00,
2013-08-22 23:31:00,70.0,37.2,29.71,West,277,2.0,3.0,30,0.00,,---,0.00,VWS V14.01,2013-08-23 06:31:00,
2013-08-22 23:36:00,70.0,37.2,29.71,NW,305,0.0,1.0,30,0.00,,---,0.00,VWS V14.01,2013-08-23 06:36:00,
2013-08-22 23:41:00,70.0,37.2,29.72,NW,309,0.0,1.0,30,0.00,,---,0.00,VWS V14.01,2013-08-23 06:41:00,
2013-08-22 23:46:00,70.0,37.2,29.72,NW,309,0.0,1.0,30,0.00,,---,0.00,VWS V14.01,2013-08-23 06:46:00,
2013-08-22 23:51:00,69.6,37.7,29.72,NW,309,0.0,2.0,31,0.00,,---,0.00,VWS V14.01,2013-08-23 06:51:00,
2013-08-22 23:56:00,69.2,38.1,29.72,NW,309,1.0,2.0,32,0.00,,---,0.00,VWS V14.01,2013-08-23 06:56:00,